createdAt,value
2023-03-18T00:00:37.142Z,98.50
2023-03-18T00:03:05.254Z,98.50
2023-03-18T00:05:34.927Z,98.70
2023-03-18T00:08:03.184Z,98.80
2023-03-18T00:10:31.699Z,98.80
2023-03-18T00:12:59.709Z,98.90
2023-03-18T00:15:27.673Z,98.70
2023-03-18T00:17:55.625Z,98.80
2023-03-18T00:20:29.208Z,98.90
2023-03-18T00:22:58.505Z,98.70
2023-03-18T00:25:28.214Z,98.80
2023-03-18T00:27:56.560Z,98.90
2023-03-18T00:30:25.379Z,99.00
2023-03-18T00:32:53.352Z,99.20
2023-03-18T00:35:21.551Z,99.50
2023-03-18T00:37:49.520Z,99.70
2023-03-18T00:40:20.517Z,99.80
2023-03-18T00:42:50.635Z,99.90
2023-03-18T00:45:19.086Z,99.90
2023-03-18T00:47:48.366Z,99.90
2023-03-18T00:50:17.286Z,99.90
2023-03-18T00:52:45.172Z,99.90
2023-03-18T00:55:14.128Z,99.90
2023-03-18T00:57:43.445Z,99.90
2023-03-18T01:00:12.646Z,99.90
2023-03-18T01:02:41.194Z,99.90
2023-03-18T01:05:10.699Z,99.90
2023-03-18T01:07:38.549Z,99.90
2023-03-18T01:10:07.744Z,99.90
2023-03-18T01:12:35.611Z,99.90
2023-03-18T01:15:06.403Z,99.90
2023-03-18T01:17:34.347Z,99.90
2023-03-18T01:20:02.563Z,99.90
2023-03-18T01:22:30.428Z,99.90
2023-03-18T01:24:58.734Z,99.90
2023-03-18T01:27:27.043Z,99.90
2023-03-18T01:29:55.174Z,99.90
2023-03-18T01:32:24.401Z,99.90
2023-03-18T01:34:52.267Z,99.90
2023-03-18T01:39:49.635Z,99.90
2023-03-18T01:42:18.185Z,99.90
2023-03-18T01:44:47.111Z,99.90
2023-03-18T01:47:16.592Z,99.90
2023-03-18T01:49:49.161Z,99.90
2023-03-18T01:52:20.429Z,99.90
2023-03-18T01:54:52.307Z,99.90
2023-03-18T01:57:21.412Z,99.90
2023-03-18T01:59:51.667Z,99.90
2023-03-18T02:02:20.642Z,99.90
2023-03-18T02:04:53.746Z,99.90
2023-03-18T02:07:23.940Z,99.90
2023-03-18T02:09:53.963Z,99.90
2023-03-18T02:12:25.001Z,99.90
2023-03-18T02:14:54.051Z,99.90
2023-03-18T02:17:25.665Z,99.90
2023-03-18T02:20:06.794Z,99.90
2023-03-18T02:22:39.266Z,99.90
2023-03-18T02:25:22.657Z,99.90
2023-03-18T02:27:55.293Z,99.90
2023-03-18T02:30:28.149Z,99.90
2023-03-18T02:32:57.867Z,99.90
2023-03-18T02:35:26.558Z,99.90
2023-03-18T02:37:54.482Z,99.90
2023-03-18T02:40:29.383Z,99.90
2023-03-18T02:43:15.327Z,99.90
2023-03-18T02:45:51.494Z,99.90
2023-03-18T02:48:21.397Z,99.90
2023-03-18T02:50:50.184Z,99.90
2023-03-18T02:53:18.117Z,99.90
2023-03-18T02:55:46.334Z,99.90
2023-03-18T02:58:15.532Z,99.90
2023-03-18T03:00:43.411Z,99.90
2023-03-18T03:03:11.634Z,99.90
2023-03-18T03:05:39.620Z,99.90
2023-03-18T03:08:07.896Z,99.90
2023-03-18T03:10:36.471Z,99.90
2023-03-18T03:13:04.399Z,99.90
2023-03-18T03:15:33.861Z,99.90
2023-03-18T03:18:01.719Z,99.90
2023-03-18T03:20:29.777Z,99.90
2023-03-18T03:22:57.922Z,99.90
2023-03-18T03:25:27.128Z,99.90
2023-03-18T03:27:55.357Z,99.90
2023-03-18T03:30:23.869Z,99.90
2023-03-18T03:32:53.661Z,99.90
2023-03-18T03:35:23.190Z,99.90
2023-03-18T03:37:51.728Z,99.90
2023-03-18T03:40:20.987Z,99.90
2023-03-18T03:42:49.899Z,99.90
2023-03-18T03:45:19.200Z,99.90
2023-03-18T03:47:48.144Z,99.90
2023-03-18T03:50:19.346Z,99.90
2023-03-18T03:52:48.227Z,99.90
2023-03-18T03:55:19.397Z,99.90
2023-03-18T03:57:47.441Z,99.90
2023-03-18T04:00:18.653Z,99.90
2023-03-18T04:02:47.342Z,99.90
2023-03-18T04:05:18.425Z,99.90
2023-03-18T04:07:46.950Z,99.90
2023-03-18T04:10:17.351Z,99.90
2023-03-18T04:12:46.751Z,99.90
2023-03-18T04:15:16.384Z,99.90
2023-03-18T04:17:44.472Z,99.90
2023-03-18T04:20:13.839Z,99.90
2023-03-18T04:22:43.025Z,99.90
2023-03-18T04:25:12.047Z,99.90
2023-03-18T04:27:40.238Z,99.90
2023-03-18T04:30:10.052Z,99.90
2023-03-18T04:32:38.104Z,99.90
2023-03-18T04:35:06.722Z,99.90
2023-03-18T04:37:37.425Z,99.90
2023-03-18T04:40:08.009Z,99.90
2023-03-18T04:42:36.049Z,99.90
2023-03-18T04:45:05.287Z,99.90
2023-03-18T04:47:35.095Z,99.90
2023-03-18T04:50:04.492Z,99.90
2023-03-18T04:52:32.441Z,99.90
2023-03-18T04:55:00.403Z,99.90
2023-03-18T04:57:29.829Z,99.90
2023-03-18T04:59:58.238Z,99.90
2023-03-18T05:02:26.231Z,99.90
2023-03-18T05:04:54.098Z,99.90
2023-03-18T05:07:21.981Z,99.90
2023-03-18T05:09:49.877Z,99.90
2023-03-18T05:12:18.338Z,99.90
2023-03-18T05:14:48.026Z,99.90
2023-03-18T05:17:16.663Z,99.90
2023-03-18T05:19:46.460Z,99.90
2023-03-18T05:22:15.329Z,99.90
2023-03-18T05:24:43.792Z,99.90
2023-03-18T05:27:12.212Z,99.90
2023-03-18T05:29:41.049Z,99.90
2023-03-18T05:32:12.591Z,99.90
2023-03-18T05:34:41.543Z,99.90
2023-03-18T05:37:11.616Z,99.90
2023-03-18T05:39:40.263Z,99.90
2023-03-18T05:42:08.659Z,99.90
2023-03-18T05:44:36.765Z,99.90
2023-03-18T05:47:04.771Z,99.90
2023-03-18T05:49:34.013Z,99.90
2023-03-18T05:52:02.814Z,99.90
2023-03-18T05:54:30.917Z,99.90
2023-03-18T05:56:59.566Z,99.90
2023-03-18T05:59:27.648Z,99.90
2023-03-18T06:01:55.591Z,99.90
2023-03-18T06:04:24.901Z,99.90
2023-03-18T06:06:55.114Z,99.90
2023-03-18T06:09:23.340Z,99.90
2023-03-18T06:11:51.533Z,99.90
2023-03-18T06:14:20.374Z,99.90
2023-03-18T06:16:48.287Z,99.90
2023-03-18T06:19:16.202Z,99.90
2023-03-18T06:21:44.065Z,99.90
2023-03-18T06:24:14.574Z,99.90
2023-03-18T06:26:43.444Z,99.90
2023-03-18T06:29:12.004Z,99.90
2023-03-18T06:31:39.926Z,99.90
2023-03-18T06:34:07.819Z,99.90
2023-03-18T06:36:35.843Z,99.90
2023-03-18T06:39:03.768Z,99.90
2023-03-18T06:41:34.906Z,99.90
2023-03-18T06:44:04.094Z,99.90
2023-03-18T06:46:33.414Z,99.90
2023-03-18T06:49:01.514Z,99.90
2023-03-18T06:51:29.399Z,99.90
2023-03-18T06:53:58.054Z,99.90
2023-03-18T06:56:25.991Z,99.90
2023-03-18T06:58:55.238Z,99.90
2023-03-18T07:01:23.264Z,99.90
2023-03-18T07:03:51.534Z,99.90
2023-03-18T07:06:19.677Z,99.90
2023-03-18T07:08:47.631Z,99.90
2023-03-18T07:11:16.593Z,99.90
2023-03-18T07:13:44.603Z,99.90
2023-03-18T07:16:13.951Z,99.90
2023-03-18T07:18:42.659Z,99.90
2023-03-18T07:21:11.319Z,99.90
2023-03-18T07:23:40.954Z,99.90
2023-03-18T07:26:08.958Z,99.90
2023-03-18T07:28:36.881Z,99.90
2023-03-18T07:31:04.929Z,99.90
2023-03-18T07:33:34.547Z,99.90
2023-03-18T07:36:02.533Z,99.90
2023-03-18T07:38:30.839Z,99.90
2023-03-18T07:40:58.691Z,99.90
2023-03-18T07:43:26.970Z,99.90
2023-03-18T07:45:55.650Z,99.90
2023-03-18T07:48:23.585Z,99.90
2023-03-18T07:50:52.833Z,99.90
2023-03-18T07:53:21.016Z,99.90
2023-03-18T07:55:48.892Z,99.90
2023-03-18T07:58:16.810Z,99.90
2023-03-18T08:00:45.088Z,99.90
2023-03-18T08:03:13.955Z,99.90
2023-03-18T08:05:42.046Z,99.90
2023-03-18T08:08:11.258Z,99.90
2023-03-18T08:10:39.226Z,99.90
2023-03-18T08:13:07.069Z,99.90
2023-03-18T08:15:35.394Z,99.90
2023-03-18T08:18:03.424Z,99.90
2023-03-18T08:20:31.765Z,99.90
2023-03-18T08:23:00.168Z,97.70
2023-03-18T08:25:29.464Z,94.40
2023-03-18T08:27:58.350Z,91.90
2023-03-18T08:30:28.721Z,89.40
2023-03-18T08:32:57.242Z,83.90
2023-03-18T08:35:25.794Z,78.30
2023-03-18T08:37:53.809Z,73.40
2023-03-18T08:40:21.849Z,68.90
2023-03-18T08:42:51.069Z,64.30
2023-03-18T08:45:20.162Z,59.50
2023-03-18T08:47:48.487Z,57.20
2023-03-18T08:50:17.282Z,55.30
2023-03-18T08:52:46.067Z,52.70
2023-03-18T08:55:14.018Z,50.70
2023-03-18T08:57:42.936Z,48.90
2023-03-18T09:00:15.333Z,47.20
2023-03-18T09:02:43.240Z,45.60
2023-03-18T09:05:11.746Z,44.60
2023-03-18T09:07:39.859Z,42.20
2023-03-18T09:10:09.387Z,40.90
2023-03-18T09:12:37.297Z,39.40
2023-03-18T09:15:06.264Z,38.30
2023-03-18T09:17:53.548Z,37.70
2023-03-18T09:20:23.389Z,37.40
2023-03-18T09:22:52.417Z,36.30
2023-03-18T09:25:20.659Z,35.40
2023-03-18T09:27:48.844Z,34.90
2023-03-18T09:30:16.964Z,34.40
2023-03-18T09:32:46.418Z,33.30
2023-03-18T09:35:14.701Z,32.90
2023-03-18T09:37:42.652Z,32.00
2023-03-18T09:40:20.766Z,31.60
2023-03-18T09:43:00.644Z,30.80
2023-03-18T09:45:34.633Z,30.00
2023-03-18T09:48:49.629Z,29.50
2023-03-18T09:51:33.195Z,29.30
2023-03-18T09:54:05.602Z,29.10
2023-03-18T09:56:36.688Z,28.80
2023-03-18T09:59:07.661Z,27.90
2023-03-18T10:01:38.734Z,27.70
2023-03-18T10:04:12.843Z,27.50
2023-03-18T10:06:44.896Z,27.60
2023-03-18T10:09:22.055Z,27.70
2023-03-18T10:11:54.709Z,27.30
2023-03-18T10:14:36.278Z,26.70
2023-03-18T10:17:13.913Z,26.70
2023-03-18T10:19:48.128Z,26.70
2023-03-18T10:22:42.086Z,26.20
2023-03-18T10:25:25.305Z,26.30
2023-03-18T10:28:07.452Z,26.20
2023-03-18T10:30:58.296Z,25.80
2023-03-18T10:33:37.642Z,25.80
2023-03-18T10:36:13.932Z,26.10
2023-03-18T10:38:46.013Z,26.00
2023-03-18T10:41:18.380Z,26.00
2023-03-18T10:43:48.638Z,25.50
2023-03-18T10:46:19.714Z,26.00
2023-03-18T10:48:49.875Z,26.00
2023-03-18T10:51:24.564Z,26.10
2023-03-18T10:53:59.953Z,25.80
2023-03-18T10:56:28.612Z,25.30
2023-03-18T10:58:57.580Z,25.30
2023-03-18T11:01:28.889Z,25.20
2023-03-18T11:04:02.105Z,24.60
2023-03-18T11:06:41.612Z,24.60
2023-03-18T11:09:12.541Z,24.40
2023-03-18T11:11:41.896Z,24.10
2023-03-18T11:14:17.022Z,24.30
2023-03-18T11:16:50.138Z,24.70
2023-03-18T11:19:29.332Z,24.90
2023-03-18T11:22:16.528Z,25.00
2023-03-18T11:24:44.938Z,25.50
2023-03-18T11:27:27.177Z,25.70
2023-03-18T11:29:58.060Z,25.60
2023-03-18T11:32:29.068Z,25.80
2023-03-18T11:35:00.878Z,25.90
2023-03-18T11:37:33.697Z,25.90
2023-03-18T11:40:19.422Z,25.90
2023-03-18T11:42:49.123Z,25.30
2023-03-18T11:45:32.895Z,24.90
2023-03-18T11:48:01.656Z,24.80
2023-03-18T11:50:40.521Z,24.80
2023-03-18T11:53:14.790Z,24.80
2023-03-18T11:55:47.728Z,24.60
2023-03-18T11:58:33.018Z,24.70
2023-03-18T12:01:08.484Z,24.40
2023-03-18T12:04:04.481Z,24.60
2023-03-18T12:06:38.991Z,24.80
2023-03-18T12:09:18.748Z,24.00
2023-03-18T12:12:04.589Z,24.30
2023-03-18T12:14:38.787Z,23.70
2023-03-18T12:17:27.099Z,23.80
2023-03-18T12:20:16.299Z,23.40
2023-03-18T12:23:03.364Z,23.60
2023-03-18T12:25:55.483Z,24.10
2023-03-18T12:28:31.990Z,23.90
2023-03-18T12:31:16.817Z,23.80
2023-03-18T12:33:55.181Z,23.70
2023-03-18T12:36:33.056Z,23.90
2023-03-18T12:39:40.333Z,23.70
2023-03-18T12:42:13.452Z,23.70
2023-03-18T12:44:55.516Z,24.00
2023-03-18T12:47:31.613Z,23.50
2023-03-18T12:50:04.078Z,23.70
2023-03-18T12:52:40.256Z,23.90
2023-03-18T12:55:17.175Z,25.00
2023-03-18T12:57:49.935Z,24.70
2023-03-18T13:00:25.129Z,25.10
2023-03-18T13:03:09.504Z,26.00
2023-03-18T13:05:45.490Z,26.80
2023-03-18T13:08:50.101Z,27.50
2023-03-18T13:11:34.309Z,28.80
2023-03-18T13:14:08.295Z,29.20
2023-03-18T13:16:38.962Z,29.80
2023-03-18T13:19:07.409Z,30.50
2023-03-18T13:21:41.760Z,30.30
2023-03-18T13:24:45.331Z,31.00
2023-03-18T13:27:30.839Z,31.70
2023-03-18T13:30:07.367Z,32.70
2023-03-18T13:33:20.394Z,33.40
2023-03-18T13:36:14.159Z,32.60
2023-03-18T13:39:08.394Z,32.70
2023-03-18T13:41:56.341Z,33.50
2023-03-18T13:44:31.873Z,33.10
2023-03-18T13:47:05.031Z,31.60
2023-03-18T13:49:34.145Z,31.30
2023-03-18T13:52:03.908Z,31.20
2023-03-18T13:54:35.928Z,30.30
2023-03-18T13:57:33.628Z,30.30
2023-03-18T14:00:30.521Z,30.10
2023-03-18T14:03:21.952Z,30.50
2023-03-18T14:05:51.618Z,31.00
2023-03-18T14:08:37.157Z,31.10
2023-03-18T14:11:46.861Z,31.90
2023-03-18T14:14:41.813Z,32.40
2023-03-18T14:17:19.966Z,31.50
2023-03-18T14:19:49.414Z,31.80
2023-03-18T14:22:24.236Z,32.60
2023-03-18T14:25:11.973Z,31.90
2023-03-18T14:27:46.426Z,33.00
2023-03-18T14:30:46.737Z,32.80
2023-03-18T14:33:35.166Z,33.10
2023-03-18T14:36:10.259Z,33.90
2023-03-18T14:38:47.601Z,33.70
2023-03-18T14:41:20.643Z,34.00
2023-03-18T14:43:58.045Z,33.60
2023-03-18T14:46:32.919Z,33.90
2023-03-18T14:49:01.519Z,33.90
2023-03-18T14:51:32.569Z,34.20
2023-03-18T14:54:05.937Z,34.10
2023-03-18T14:56:40.475Z,34.30
2023-03-18T14:59:14.590Z,35.90
2023-03-18T15:01:47.121Z,35.00
2023-03-18T15:04:19.655Z,35.20
2023-03-18T15:06:49.608Z,35.00
2023-03-18T15:09:21.994Z,35.20
2023-03-18T15:11:49.866Z,35.80
2023-03-18T15:14:21.614Z,35.60
2023-03-18T15:16:54.944Z,35.70
2023-03-18T15:19:23.478Z,35.60
2023-03-18T15:21:52.977Z,35.50
2023-03-18T15:24:23.704Z,35.30
2023-03-18T15:26:58.739Z,35.70
2023-03-18T15:29:29.442Z,36.10
2023-03-18T15:32:10.530Z,36.30
2023-03-18T15:34:42.178Z,36.60
2023-03-18T15:37:27.056Z,36.70
2023-03-18T15:39:58.892Z,37.30
2023-03-18T15:42:28.946Z,36.60
2023-03-18T15:45:00.315Z,36.70
2023-03-18T15:47:30.574Z,37.30
2023-03-18T15:50:00.363Z,37.30
2023-03-18T15:52:33.369Z,37.20
2023-03-18T15:55:04.689Z,37.10
2023-03-18T15:57:35.662Z,37.20
2023-03-18T16:00:04.417Z,37.70
2023-03-18T16:02:32.253Z,37.90
2023-03-18T16:05:09.193Z,37.70
2023-03-18T16:07:38.611Z,37.70
2023-03-18T16:10:08.455Z,37.90
2023-03-18T16:12:37.502Z,38.00
2023-03-18T16:15:07.505Z,38.40
2023-03-18T16:17:35.508Z,38.60
2023-03-18T16:20:06.500Z,39.50
2023-03-18T16:22:35.160Z,38.80
2023-03-18T16:25:04.465Z,38.90
2023-03-18T16:27:37.395Z,38.80
2023-03-18T16:30:06.264Z,38.70
2023-03-18T16:32:35.512Z,38.70
2023-03-18T16:35:03.673Z,38.70
2023-03-18T16:37:31.573Z,39.20
2023-03-18T16:39:59.481Z,39.40
2023-03-18T16:42:28.666Z,40.00
2023-03-18T16:44:56.773Z,41.10
2023-03-18T16:47:27.730Z,41.90
2023-03-18T16:49:56.406Z,43.00
2023-03-18T16:52:24.303Z,44.40
2023-03-18T16:54:52.254Z,46.10
2023-03-18T16:57:23.582Z,46.30
2023-03-18T16:59:56.488Z,47.40
2023-03-18T17:02:32.242Z,47.60
2023-03-18T17:05:00.704Z,47.40
2023-03-18T17:07:29.578Z,47.80
2023-03-18T17:09:57.513Z,48.60
2023-03-18T17:12:26.180Z,49.10
2023-03-18T17:14:58.390Z,49.90
2023-03-18T17:17:29.627Z,49.90
2023-03-18T17:19:59.652Z,50.70
2023-03-18T17:22:30.539Z,50.90
2023-03-18T17:25:00.116Z,51.20
2023-03-18T17:27:31.583Z,51.90
2023-03-18T17:30:01.399Z,52.20
2023-03-18T17:32:29.392Z,52.10
2023-03-18T17:34:57.418Z,52.50
2023-03-18T17:37:25.331Z,53.00
2023-03-18T17:39:53.379Z,53.50
2023-03-18T17:42:30.836Z,53.40
2023-03-18T17:45:04.953Z,54.20
2023-03-18T17:47:32.987Z,54.40
2023-03-18T17:50:01.057Z,53.90
2023-03-18T17:52:29.018Z,54.50
2023-03-18T17:54:57.095Z,54.90
2023-03-18T17:57:25.337Z,55.20
2023-03-18T17:59:53.927Z,55.40
2023-03-18T18:02:23.329Z,55.80
2023-03-18T18:04:51.526Z,56.50
2023-03-18T18:07:23.766Z,56.40
2023-03-18T18:09:51.715Z,56.90
2023-03-18T18:12:23.032Z,56.70
2023-03-18T18:14:51.125Z,57.20
2023-03-18T18:17:19.512Z,57.70
2023-03-18T18:19:48.833Z,58.10
2023-03-18T18:22:18.184Z,58.10
2023-03-18T18:24:47.119Z,58.60
2023-03-18T18:27:15.502Z,59.10
2023-03-18T18:29:45.945Z,58.90
2023-03-18T18:32:15.539Z,59.00
2023-03-18T18:34:43.513Z,59.30
2023-03-18T18:37:13.367Z,59.60
2023-03-18T18:39:42.258Z,59.80
2023-03-18T18:42:12.267Z,60.00
2023-03-18T18:44:40.220Z,60.50
2023-03-18T18:47:19.252Z,61.80
2023-03-18T18:49:47.512Z,61.50
2023-03-18T18:52:16.887Z,61.80
2023-03-18T18:54:45.028Z,62.10
2023-03-18T18:57:26.681Z,62.20
2023-03-18T18:59:54.859Z,62.40
2023-03-18T19:02:31.207Z,63.10
2023-03-18T19:04:59.980Z,63.20
2023-03-18T19:07:30.078Z,63.60
2023-03-18T19:09:58.006Z,63.90
2023-03-18T19:12:25.962Z,64.10
2023-03-18T19:14:53.898Z,64.40
2023-03-18T19:17:23.629Z,65.40
2023-03-18T19:19:53.261Z,64.90
2023-03-18T19:22:22.633Z,65.10
2023-03-18T19:24:51.940Z,65.00
2023-03-18T19:27:24.835Z,65.20
2023-03-18T19:29:55.345Z,65.30
2023-03-18T19:32:23.820Z,65.80
2023-03-18T19:34:53.287Z,65.90
2023-03-18T19:37:24.881Z,66.20
2023-03-18T19:39:55.343Z,66.50
2023-03-18T19:42:23.707Z,66.80
2023-03-18T19:44:51.601Z,67.30
2023-03-18T19:47:23.748Z,67.70
2023-03-18T19:49:52.021Z,68.00
2023-03-18T19:52:22.490Z,68.60
2023-03-18T19:54:51.483Z,68.00
2023-03-18T19:57:24.801Z,68.20
2023-03-18T19:59:54.836Z,68.80
2023-03-18T20:02:25.005Z,69.40
2023-03-18T20:04:54.551Z,69.50
2023-03-18T20:07:23.965Z,70.00
2023-03-18T20:09:52.516Z,70.50
2023-03-18T20:12:26.481Z,70.70
2023-03-18T20:14:54.445Z,71.10
2023-03-18T20:17:36.076Z,71.20
2023-03-18T20:20:04.428Z,71.30
2023-03-18T20:22:35.039Z,71.30
2023-03-18T20:25:03.591Z,71.90
2023-03-18T20:27:33.187Z,72.20
2023-03-18T20:30:01.769Z,72.50
2023-03-18T20:32:29.744Z,72.90
2023-03-18T20:34:57.731Z,73.00
2023-03-18T20:37:31.001Z,72.90
2023-03-18T20:39:59.026Z,73.00
2023-03-18T20:42:27.173Z,73.40
2023-03-18T20:44:56.409Z,73.90
2023-03-18T20:47:24.392Z,74.20
2023-03-18T20:49:53.929Z,74.50
2023-03-18T20:52:26.936Z,74.60
2023-03-18T20:54:56.453Z,74.60
2023-03-18T20:57:24.612Z,75.30
2023-03-18T20:59:52.792Z,75.80
2023-03-18T21:02:31.098Z,76.10
2023-03-18T21:05:00.432Z,76.30
2023-03-18T21:07:29.200Z,76.30
2023-03-18T21:09:57.214Z,76.80
2023-03-18T21:12:25.715Z,77.10
2023-03-18T21:14:53.682Z,77.10
2023-03-18T21:17:24.279Z,77.30
2023-03-18T21:20:00.743Z,77.30
2023-03-18T21:22:33.325Z,77.40
2023-03-18T21:25:01.279Z,77.90
2023-03-18T21:27:29.791Z,78.40
2023-03-18T21:29:58.125Z,78.80
2023-03-18T21:32:29.479Z,79.00
2023-03-18T21:34:58.832Z,79.30
2023-03-18T21:37:28.224Z,79.50
2023-03-18T21:39:56.261Z,79.80
2023-03-18T21:42:26.069Z,80.20
2023-03-18T21:44:55.250Z,80.30
2023-03-18T21:47:24.767Z,80.60
2023-03-18T21:49:52.718Z,80.80
2023-03-18T21:52:28.212Z,81.00
2023-03-18T21:54:56.322Z,81.10
2023-03-18T21:57:25.322Z,81.30
2023-03-18T21:59:54.509Z,81.70
2023-03-18T22:02:29.374Z,82.00
2023-03-18T22:04:59.065Z,82.30
2023-03-18T22:07:30.011Z,82.70
2023-03-18T22:09:58.736Z,82.90
2023-03-18T22:12:28.444Z,83.80
2023-03-18T22:14:57.371Z,83.20
2023-03-18T22:17:27.161Z,83.30
2023-03-18T22:19:56.672Z,83.60
2023-03-18T22:22:27.104Z,83.80
2023-03-18T22:24:56.719Z,83.90
2023-03-18T22:27:26.270Z,84.10
2023-03-18T22:29:55.635Z,84.40
2023-03-18T22:32:36.655Z,84.70
2023-03-18T22:35:06.753Z,85.10
2023-03-18T22:37:34.698Z,85.30
2023-03-18T22:40:04.369Z,85.50
2023-03-18T22:42:32.442Z,85.60
2023-03-18T22:45:00.393Z,85.90
2023-03-18T22:47:28.349Z,86.10
2023-03-18T22:49:56.215Z,86.30
2023-03-18T22:52:26.394Z,86.30
2023-03-18T22:54:58.405Z,86.30
2023-03-18T22:57:29.353Z,86.80
2023-03-18T22:59:58.268Z,86.60
2023-03-18T23:02:28.602Z,86.90
2023-03-18T23:04:57.394Z,86.90
2023-03-18T23:07:28.876Z,87.00
2023-03-18T23:09:58.424Z,87.20
2023-03-18T23:12:30.267Z,87.50
2023-03-18T23:14:58.880Z,87.70
2023-03-18T23:17:28.897Z,87.80
2023-03-18T23:19:57.021Z,88.20
2023-03-18T23:22:27.404Z,88.40
2023-03-18T23:24:55.751Z,88.20
2023-03-18T23:27:24.959Z,88.30
2023-03-18T23:29:54.826Z,89.00
2023-03-18T23:32:24.364Z,89.30
2023-03-18T23:34:52.749Z,89.60
2023-03-18T23:37:20.795Z,89.50
2023-03-18T23:39:48.741Z,89.70
2023-03-18T23:42:17.847Z,90.00
2023-03-18T23:44:46.598Z,90.10
2023-03-18T23:47:16.927Z,90.30
2023-03-18T23:49:44.846Z,90.50
2023-03-18T23:52:14.879Z,90.70
2023-03-18T23:54:42.787Z,90.90
2023-03-18T23:57:12.262Z,90.90
2023-03-18T23:59:40.583Z,91.00
